Time;durP1;ratioP1;P1;durP2;ratioP2;P2;SDS_P1;SDS_P2;PMS_P1;PMS_P2;Temp;Humidity;BMP_temperature;BMP_pressure;BME280_temperature;BME280_humidity;BME280_pressure;Samples;Min_cycle;Max_cycle;Signal;HPM_P1;HPM_P2
2023/05/12 00:01:11;;;;;;;1.30;1.00;;;7.50;99.90;;;;;;5053522;28;20468;-60
2023/05/12 00:03:38;;;;;;;1.03;0.90;;;7.10;99.90;;;;;;5053610;28;20468;-60
2023/05/12 00:06:07;;;;;;;1.30;1.00;;;7.20;99.90;;;;;;5052040;28;20741;-59
2023/05/12 00:08:34;;;;;;;1.43;1.10;;;7.30;99.90;;;;;;5052002;28;20461;-60
2023/05/12 00:11:01;;;;;;;1.30;0.80;;;7.00;99.90;;;;;;5053244;28;20445;-60
2023/05/12 00:13:28;;;;;;;1.40;0.90;;;6.80;99.90;;;;;;5053189;28;21008;-60
2023/05/12 00:15:57;;;;;;;1.30;1.00;;;6.80;99.90;;;;;;5052128;28;20884;-59
2023/05/12 00:18:25;;;;;;;2.00;1.23;;;6.80;99.90;;;;;;5053112;28;20487;-62
2023/05/12 00:20:53;;;;;;;1.90;1.30;;;6.90;99.90;;;;;;5052774;28;20468;-60
2023/05/12 00:23:22;;;;;;;1.80;1.17;;;7.10;99.90;;;;;;5053539;28;20445;-61
2023/05/12 00:25:49;;;;;;;1.70;1.30;;;7.20;99.90;;;;;;5052507;28;20451;-59
2023/05/12 00:28:17;;;;;;;2.07;1.47;;;7.30;99.90;;;;;;5052768;28;20541;-60
2023/05/12 00:30:44;;;;;;;1.73;1.63;;;7.40;99.90;;;;;;5052466;28;20543;-60
2023/05/12 00:33:11;;;;;;;1.97;1.33;;;7.60;99.90;;;;;;5052529;28;20472;-60
2023/05/12 00:35:38;;;;;;;3.33;1.40;;;7.60;99.90;;;;;;5052166;28;20503;-59
2023/05/12 00:38:05;;;;;;;1.57;1.10;;;7.60;99.90;;;;;;5052598;28;20505;-61
2023/05/12 00:40:33;;;;;;;1.80;1.33;;;7.80;99.90;;;;;;5052517;28;20538;-61
2023/05/12 00:43:00;;;;;;;2.53;1.40;;;7.80;99.90;;;;;;5052794;28;20524;-60
2023/05/12 00:45:28;;;;;;;2.80;2.07;;;7.70;99.90;;;;;;5051575;28;20896;-60
2023/05/12 00:47:55;;;;;;;2.17;1.57;;;7.70;99.90;;;;;;5051842;28;20958;-60
2023/05/12 00:50:23;;;;;;;1.90;1.60;;;7.70;99.90;;;;;;5052387;28;20926;-60
2023/05/12 00:52:50;;;;;;;1.87;1.30;;;7.50;99.90;;;;;;5052052;28;20481;-59
2023/05/12 00:55:17;;;;;;;1.90;1.50;;;7.50;99.90;;;;;;5051367;28;20477;-60
2023/05/12 00:57:46;;;;;;;1.40;1.23;;;7.60;99.90;;;;;;5051449;28;20552;-61
2023/05/12 01:00:13;;;;;;;1.60;1.20;;;7.60;99.90;;;;;;5051766;28;20505;-60
2023/05/12 01:02:40;;;;;;;1.33;1.20;;;7.70;99.90;;;;;;5052177;28;20442;-60
2023/05/12 01:05:08;;;;;;;1.73;1.30;;;7.90;99.90;;;;;;5051705;28;20597;-60
2023/05/12 01:07:36;;;;;;;1.77;1.40;;;7.70;99.90;;;;;;5052578;28;20445;-60
2023/05/12 01:10:04;;;;;;;2.27;1.73;;;7.60;99.90;;;;;;5052153;28;20470;-61
2023/05/12 01:12:32;;;;;;;1.60;1.40;;;7.50;99.90;;;;;;5051952;28;20464;-61
2023/05/12 01:15:00;;;;;;;1.50;1.30;;;7.50;99.90;;;;;;5052206;28;20442;-60
2023/05/12 01:17:31;;;;;;;1.83;1.27;;;7.50;99.90;;;;;;5051365;28;20536;-61
2023/05/12 01:20:01;;;;;;;1.43;1.33;;;7.50;99.90;;;;;;5051673;28;20474;-60
2023/05/12 01:22:30;;;;;;;1.60;1.50;;;7.60;99.90;;;;;;5051743;28;20496;-60
2023/05/12 01:25:01;;;;;;;2.20;1.73;;;7.60;99.90;;;;;;5052036;28;20448;-60
2023/05/12 01:27:30;;;;;;;1.80;1.20;;;7.60;99.90;;;;;;5051734;28;20532;-60
2023/05/12 01:29:59;;;;;;;1.43;1.10;;;7.50;99.90;;;;;;5051486;28;20947;-60
2023/05/12 01:32:26;;;;;;;2.13;1.53;;;7.50;99.90;;;;;;5051434;28;20442;-60
2023/05/12 01:34:53;;;;;;;1.57;1.17;;;7.50;99.90;;;;;;5051744;28;20521;-60
2023/05/12 01:37:20;;;;;;;2.70;1.40;;;7.70;99.90;;;;;;5051645;28;20481;-61
2023/05/12 01:39:47;;;;;;;1.63;1.40;;;7.70;99.90;;;;;;5051243;28;20921;-61
2023/05/12 01:42:14;;;;;;;1.60;1.20;;;7.80;99.90;;;;;;5051412;28;20499;-61
2023/05/12 01:44:42;;;;;;;1.90;1.30;;;7.70;99.90;;;;;;5051384;28;20449;-60
2023/05/12 01:47:10;;;;;;;2.20;1.50;;;7.80;99.90;;;;;;5051755;28;20907;-61
2023/05/12 01:49:37;;;;;;;1.70;1.60;;;7.80;99.90;;;;;;5051509;28;20465;-60
2023/05/12 01:52:04;;;;;;;1.80;1.60;;;7.70;99.90;;;;;;5051724;28;20552;-61
2023/05/12 01:54:31;;;;;;;1.80;1.53;;;7.60;99.90;;;;;;5051147;28;20469;-59
2023/05/12 01:56:58;;;;;;;2.40;1.50;;;7.70;99.90;;;;;;5050844;28;20536;-59
2023/05/12 01:59:25;;;;;;;1.50;1.10;;;7.80;99.90;;;;;;5050892;28;20512;-60
2023/05/12 02:01:53;;;;;;;1.30;1.20;;;7.80;99.90;;;;;;5051380;28;20520;-60
2023/05/12 02:04:20;;;;;;;1.60;1.30;;;7.80;99.90;;;;;;5051111;28;20441;-60
2023/05/12 02:06:47;;;;;;;1.70;1.20;;;7.60;99.90;;;;;;5051051;28;20453;-60
2023/05/12 02:09:14;;;;;;;1.43;1.27;;;7.60;99.90;;;;;;5050945;28;20540;-60
2023/05/12 02:11:41;;;;;;;1.60;1.50;;;7.70;99.90;;;;;;5050564;28;20993;-60
2023/05/12 02:14:08;;;;;;;7.87;5.57;;;7.60;99.90;;;;;;5047536;28;20474;-60
2023/05/12 02:16:34;;;;;;;2.67;2.20;;;7.60;99.90;;;;;;5050813;28;20968;-59
2023/05/12 02:19:03;;;;;;;3.37;2.37;;;7.70;99.90;;;;;;5051017;28;21234;-60
2023/05/12 02:21:30;;;;;;;3.07;2.17;;;7.70;99.90;;;;;;5050870;28;20481;-61
2023/05/12 02:23:57;;;;;;;2.23;1.63;;;7.70;99.90;;;;;;5048237;28;20523;-60
2023/05/12 02:26:24;;;;;;;1.67;1.23;;;7.80;99.90;;;;;;5050282;28;20540;-59
2023/05/12 02:28:50;;;;;;;1.97;1.77;;;7.80;99.90;;;;;;5050918;28;20489;-60
2023/05/12 02:31:17;;;;;;;1.50;1.30;;;7.90;99.90;;;;;;5050170;28;20529;-60
2023/05/12 02:33:44;;;;;;;2.00;1.80;;;7.70;99.90;;;;;;5050682;28;20689;-60
2023/05/12 02:36:12;;;;;;;2.50;1.70;;;7.30;99.90;;;;;;5050516;28;20481;-60
2023/05/12 02:38:40;;;;;;;2.03;1.83;;;7.10;99.90;;;;;;5050314;28;20555;-59
2023/05/12 02:41:07;;;;;;;1.63;1.50;;;7.20;99.90;;;;;;5049165;28;20446;-60
2023/05/12 02:43:34;;;;;;;2.30;1.60;;;7.20;99.90;;;;;;5049273;28;20442;-60
2023/05/12 02:46:01;;;;;;;1.90;1.70;;;7.30;99.90;;;;;;5048457;28;20474;-60
2023/05/12 02:48:28;;;;;;;2.20;1.70;;;7.40;99.90;;;;;;5049179;28;20552;-59
2023/05/12 02:50:55;;;;;;;2.10;1.50;;;7.50;99.90;;;;;;5049365;28;20528;-60
2023/05/12 02:53:23;;;;;;;1.53;1.33;;;7.60;99.90;;;;;;5049231;28;20864;-60
2023/05/12 02:55:50;;;;;;;10.77;3.00;;;7.50;99.90;;;;;;5049320;28;20445;-61
2023/05/12 02:58:17;;;;;;;14.17;3.63;;;7.40;99.90;;;;;;5049853;28;20565;-60
2023/05/12 03:00:44;;;;;;;2.67;1.40;;;6.80;99.90;;;;;;5049232;28;20528;-59
2023/05/12 03:03:11;;;;;;;1.60;1.40;;;6.70;99.90;;;;;;5048898;28;20456;-59
2023/05/12 03:05:38;;;;;;;2.00;1.30;;;6.90;99.90;;;;;;5048971;28;20541;-59
2023/05/12 03:08:05;;;;;;;2.03;1.70;;;7.10;99.90;;;;;;5049125;28;20528;-60
2023/05/12 03:10:34;;;;;;;2.20;1.60;;;7.20;99.90;;;;;;5049104;28;20442;-60
2023/05/12 03:13:01;;;;;;;3.40;1.80;;;7.20;99.90;;;;;;5048845;28;20483;-60
2023/05/12 03:15:27;;;;;;;1.60;1.30;;;7.40;99.90;;;;;;5050603;28;20517;-60
2023/05/12 03:17:55;;;;;;;1.77;1.50;;;7.30;99.90;;;;;;5050282;28;20525;-61
2023/05/12 03:20:22;;;;;;;1.93;1.70;;;7.30;99.90;;;;;;5050140;28;20488;-60
2023/05/12 03:22:48;;;;;;;2.03;1.47;;;7.40;99.90;;;;;;5050445;28;20468;-61
2023/05/12 03:25:15;;;;;;;1.93;1.73;;;7.30;99.90;;;;;;5049811;28;20541;-60
2023/05/12 03:27:44;;;;;;;2.07;1.60;;;7.00;99.90;;;;;;5049504;28;20532;-60
2023/05/12 03:30:12;;;;;;;1.60;1.40;;;7.10;99.90;;;;;;5050070;28;20989;-59
2023/05/12 03:32:39;;;;;;;1.97;1.33;;;7.10;99.90;;;;;;5050394;28;20521;-59
2023/05/12 03:35:06;;;;;;;2.00;1.17;;;7.10;99.90;;;;;;5050033;28;20883;-60
2023/05/12 03:37:33;;;;;;;1.60;1.37;;;7.20;99.90;;;;;;5050346;28;20476;-59
2023/05/12 03:40:00;;;;;;;1.90;1.47;;;7.30;99.90;;;;;;5049727;28;20535;-60
2023/05/12 03:42:27;;;;;;;1.90;1.00;;;7.20;99.90;;;;;;5050430;28;20480;-60
2023/05/12 03:44:55;;;;;;;2.43;1.20;;;7.30;99.90;;;;;;5053910;28;20472;-60
2023/05/12 03:47:22;;;;;;;2.13;1.03;;;7.30;99.90;;;;;;5053887;28;20503;-59
2023/05/12 03:49:49;;;;;;;1.30;0.90;;;7.30;99.90;;;;;;5053433;28;20567;-60
2023/05/12 03:52:16;;;;;;;2.03;1.00;;;7.10;99.90;;;;;;5053625;28;20491;-59
2023/05/12 03:54:43;;;;;;;1.00;0.73;;;7.10;99.90;;;;;;5053514;28;20527;-60
2023/05/12 03:57:11;;;;;;;1.43;0.80;;;7.10;99.90;;;;;;5050945;28;20574;-60
2023/05/12 03:59:38;;;;;;;2.40;1.30;;;7.10;99.90;;;;;;5052515;28;20552;-61
2023/05/12 04:02:10;;;;;;;1.20;0.80;;;7.10;99.90;;;;;;5052883;28;20524;-60
2023/05/12 04:04:37;;;;;;;1.50;0.70;;;7.10;99.90;;;;;;5053276;28;20959;-60
2023/05/12 04:07:04;;;;;;;1.30;1.00;;;7.20;99.90;;;;;;5051822;28;20540;-60
2023/05/12 04:09:31;;;;;;;4.50;2.40;;;7.30;99.90;;;;;;5050523;28;20980;-60
2023/05/12 04:11:59;;;;;;;1.80;1.50;;;7.40;99.90;;;;;;5051462;28;20459;-60
2023/05/12 04:14:25;;;;;;;2.43;1.70;;;7.40;99.90;;;;;;5052167;28;20442;-59
2023/05/12 04:16:52;;;;;;;1.87;1.57;;;7.30;99.90;;;;;;5051927;28;20971;-59
2023/05/12 04:19:21;;;;;;;2.23;1.90;;;7.10;99.90;;;;;;5051943;28;20509;-61
2023/05/12 04:21:48;;;;;;;4.17;1.70;;;7.00;99.90;;;;;;5052035;28;20452;-61
2023/05/12 04:24:15;;;;;;;5.57;2.87;;;7.20;99.90;;;;;;5053123;28;20481;-59
2023/05/12 04:26:42;;;;;;;2.40;1.93;;;7.10;99.90;;;;;;5051496;28;20945;-61
2023/05/12 04:29:09;;;;;;;2.87;2.10;;;7.20;99.90;;;;;;5049424;28;20599;-60
2023/05/12 04:31:35;;;;;;;3.57;2.63;;;7.20;99.90;;;;;;5052250;28;20528;-60
2023/05/12 04:34:02;;;;;;;3.20;2.90;;;7.30;99.90;;;;;;5052577;28;20995;-60
2023/05/12 04:36:32;;;;;;;2.93;2.47;;;7.30;99.90;;;;;;5052901;28;20874;-60
2023/05/12 04:38:59;;;;;;;3.43;3.13;;;6.80;99.90;;;;;;5052711;28;20477;-60
2023/05/12 04:41:26;;;;;;;3.13;2.83;;;6.90;99.90;;;;;;5052398;28;20474;-60
2023/05/12 04:43:53;;;;;;;2.30;1.83;;;7.00;99.90;;;;;;5052804;28;20811;-60
2023/05/12 04:46:20;;;;;;;2.57;2.20;;;7.20;99.90;;;;;;5052022;28;20484;-60
2023/05/12 04:48:47;;;;;;;1.90;1.70;;;7.30;99.90;;;;;;5052234;28;20469;-60
2023/05/12 04:51:14;;;;;;;3.20;1.87;;;7.20;99.90;;;;;;5042839;28;21106;-60
2023/05/12 04:53:42;;;;;;;3.43;2.37;;;7.10;99.90;;;;;;5045969;28;20524;-60
2023/05/12 04:56:09;;;;;;;2.30;2.10;;;7.30;99.90;;;;;;5051969;28;20525;-61
2023/05/12 04:58:37;;;;;;;3.50;2.73;;;7.40;99.90;;;;;;5062193;22;21026;-84
2023/05/12 05:01:04;;;;;;;3.23;2.43;;;7.40;99.90;;;;;;5051907;28;20458;-82
2023/05/12 05:03:31;;;;;;;3.93;2.70;;;7.50;99.90;;;;;;5052419;28;20532;-81
2023/05/12 05:05:58;;;;;;;3.20;2.60;;;7.50;99.90;;;;;;5047113;28;20540;-81
2023/05/12 05:08:25;;;;;;;1.90;1.70;;;7.10;99.90;;;;;;5041704;28;20849;-81
2023/05/12 05:10:53;;;;;;;2.60;2.10;;;7.20;99.90;;;;;;5051823;28;20807;-81
2023/05/12 05:13:20;;;;;;;2.17;1.50;;;7.20;99.90;;;;;;5074711;22;21018;-57
2023/05/12 05:15:51;;;;;;;2.30;2.10;;;7.40;99.90;;;;;;5080363;28;20514;-57
2023/05/12 05:18:18;;;;;;;3.37;2.53;;;7.60;99.90;;;;;;5073023;28;20496;-59
2023/05/12 05:20:45;;;;;;;3.10;2.67;;;7.60;99.90;;;;;;5055297;28;20886;-58
2023/05/12 05:23:12;;;;;;;3.53;2.63;;;7.60;99.90;;;;;;5052414;28;20448;-59
2023/05/12 05:25:39;;;;;;;3.13;2.63;;;7.60;99.90;;;;;;5053724;28;20475;-58
2023/05/12 05:28:07;;;;;;;3.30;3.00;;;7.60;99.90;;;;;;5060505;28;20444;-57
2023/05/12 05:30:35;;;;;;;3.50;2.87;;;7.70;99.90;;;;;;5058589;28;20462;-58
2023/05/12 05:33:02;;;;;;;3.30;3.00;;;7.70;99.90;;;;;;5052840;28;20477;-57
2023/05/12 05:35:30;;;;;;;6.03;3.97;;;7.60;99.90;;;;;;5051301;28;20465;-57
2023/05/12 05:37:57;;;;;;;9.10;4.60;;;7.80;99.90;;;;;;5052260;28;20568;-59
2023/05/12 05:40:24;;;;;;;7.77;3.67;;;7.80;99.90;;;;;;5052060;28;20517;-58
2023/05/12 05:42:50;;;;;;;2.57;2.37;;;7.90;99.90;;;;;;5051764;28;20897;-57
2023/05/12 05:45:19;;;;;;;3.30;2.73;;;7.90;99.90;;;;;;5052854;28;20525;-59
2023/05/12 05:47:48;;;;;;;3.17;2.70;;;8.00;99.90;;;;;;5057474;28;20521;-56
2023/05/12 05:50:15;;;;;;;2.83;1.83;;;8.00;99.90;;;;;;5060503;28;20496;-59
2023/05/12 05:52:42;;;;;;;3.37;3.07;;;7.80;99.90;;;;;;5051749;28;20473;-60
2023/05/12 05:55:10;;;;;;;3.90;2.30;;;7.90;99.90;;;;;;5053460;28;20445;-58
2023/05/12 05:57:36;;;;;;;3.00;2.70;;;8.00;99.90;;;;;;5050847;28;20990;-60
2023/05/12 06:00:04;;;;;;;4.30;3.50;;;8.10;99.90;;;;;;5048961;28;20531;-59
2023/05/12 06:02:33;;;;;;;3.20;2.40;;;8.20;99.90;;;;;;5050118;28;20451;-58
2023/05/12 06:05:00;;;;;;;3.30;2.57;;;8.20;99.90;;;;;;5050194;28;20956;-58
2023/05/12 06:07:27;;;;;;;3.50;2.50;;;8.20;99.90;;;;;;5049135;28;20446;-59
2023/05/12 06:09:54;;;;;;;2.37;1.80;;;8.20;99.90;;;;;;5051991;28;20537;-56
2023/05/12 06:12:21;;;;;;;1.83;1.73;;;8.20;99.90;;;;;;5070914;28;20931;-58
2023/05/12 06:14:48;;;;;;;2.40;1.93;;;8.20;99.90;;;;;;5069921;28;20499;-58
2023/05/12 06:17:15;;;;;;;4.00;1.57;;;8.20;99.90;;;;;;5049860;28;20518;-59
2023/05/12 06:19:46;;;;;;;2.07;1.70;;;8.10;99.90;;;;;;5050164;28;20521;-58
2023/05/12 06:22:13;;;;;;;3.00;1.83;;;7.70;99.90;;;;;;5050131;28;20961;-59
2023/05/12 06:24:40;;;;;;;3.10;2.03;;;7.90;99.90;;;;;;5051732;28;20473;-59
2023/05/12 06:27:07;;;;;;;3.70;2.43;;;8.10;99.90;;;;;;5049358;28;20544;-59
2023/05/12 06:29:34;;;;;;;3.17;2.87;;;8.20;99.90;;;;;;5059778;28;20541;-59
2023/05/12 06:32:01;;;;;;;3.23;2.60;;;8.30;99.90;;;;;;5070454;28;20547;-58
2023/05/12 06:34:28;;;;;;;3.10;2.43;;;8.20;99.90;;;;;;5069882;28;20531;-59
2023/05/12 06:36:56;;;;;;;2.03;1.73;;;8.20;99.90;;;;;;5070266;28;20440;-58
2023/05/12 06:39:23;;;;;;;1.80;1.70;;;8.10;99.90;;;;;;5068457;28;20549;-59
2023/05/12 06:41:50;;;;;;;4.03;1.10;;;8.20;99.90;;;;;;5053026;28;20489;-59
2023/05/12 06:44:17;;;;;;;1.33;1.23;;;8.30;99.90;;;;;;5049934;28;20867;-58
2023/05/12 06:46:44;;;;;;;4.60;1.80;;;8.40;99.90;;;;;;5059676;28;20715;-59
2023/05/12 06:49:11;;;;;;;1.67;1.30;;;8.60;99.90;;;;;;5044710;28;20502;-58
2023/05/12 06:51:38;;;;;;;2.37;1.50;;;8.70;99.90;;;;;;5047043;28;20480;-58
2023/05/12 06:54:06;;;;;;;1.57;1.17;;;8.70;99.90;;;;;;5058991;28;20445;-58
2023/05/12 06:56:33;;;;;;;1.33;1.00;;;8.80;99.90;;;;;;5053035;28;20803;-59
2023/05/12 06:59:01;;;;;;;1.10;0.70;;;8.70;99.90;;;;;;5052525;28;20546;-56
2023/05/12 07:01:29;;;;;;;1.97;0.90;;;8.50;99.90;;;;;;5059262;28;20472;-58
2023/05/12 07:03:56;;;;;;;1.30;0.77;;;8.70;99.90;;;;;;5070788;28;20531;-58
2023/05/12 07:06:23;;;;;;;1.30;0.80;;;8.60;99.90;;;;;;5054450;28;20473;-58
2023/05/12 07:08:50;;;;;;;1.47;0.83;;;8.60;99.90;;;;;;5057984;28;20466;-57
2023/05/12 07:11:19;;;;;;;1.73;1.00;;;8.60;99.90;;;;;;5050290;28;20521;-56
2023/05/12 07:13:46;;;;;;;1.60;1.03;;;8.80;99.90;;;;;;5050574;28;20442;-57
2023/05/12 07:16:13;;;;;;;1.67;0.80;;;9.00;99.90;;;;;;5050517;28;20438;-56
2023/05/12 07:18:40;;;;;;;1.77;0.87;;;9.10;99.90;;;;;;5070785;28;20473;-56
2023/05/12 07:21:08;;;;;;;2.33;1.30;;;9.20;99.90;;;;;;5058542;28;20513;-56
2023/05/12 07:23:35;;;;;;;1.30;0.70;;;9.40;99.90;;;;;;5073245;28;20441;-57
2023/05/12 07:26:02;;;;;;;2.10;0.70;;;9.40;99.90;;;;;;5064666;28;20434;-58
2023/05/12 07:28:34;;;;;;;1.50;0.80;;;9.50;99.90;;;;;;5054545;28;20441;-56
2023/05/12 07:31:01;;;;;;;1.50;1.20;;;9.60;99.90;;;;;;5053717;28;21079;-55
2023/05/12 07:33:28;;;;;;;1.63;1.00;;;9.50;99.90;;;;;;5053151;28;20800;-56
2023/05/12 07:35:55;;;;;;;1.30;0.80;;;9.30;99.90;;;;;;5053020;28;20488;-58
2023/05/12 07:38:22;;;;;;;1.10;0.50;;;9.30;99.90;;;;;;5047448;28;20449;-58
2023/05/12 07:40:50;;;;;;;1.00;0.70;;;9.30;99.90;;;;;;5052727;28;20478;-58
2023/05/12 07:43:17;;;;;;;1.00;0.70;;;9.20;99.90;;;;;;5054266;28;20436;-56
2023/05/12 07:45:45;;;;;;;1.60;0.80;;;9.30;99.90;;;;;;5053922;28;21019;-57
2023/05/12 07:48:12;;;;;;;0.90;0.60;;;9.30;99.90;;;;;;5052818;28;20528;-56
2023/05/12 07:50:39;;;;;;;1.10;0.60;;;9.50;99.90;;;;;;5052354;28;20485;-56
2023/05/12 07:53:06;;;;;;;1.53;0.80;;;9.50;99.90;;;;;;5050980;28;20446;-56
2023/05/12 07:55:33;;;;;;;1.03;0.57;;;9.50;99.90;;;;;;5051867;28;20529;-56
2023/05/12 07:58:00;;;;;;;0.90;0.50;;;9.60;99.90;;;;;;5052450;28;20480;-56
2023/05/12 08:00:28;;;;;;;1.00;0.60;;;9.80;99.90;;;;;;5052683;28;20477;-56
2023/05/12 08:02:56;;;;;;;1.27;0.73;;;9.70;99.90;;;;;;5053911;28;20968;-56
2023/05/12 08:05:23;;;;;;;1.10;0.60;;;9.90;99.90;;;;;;5061317;28;20485;-56
2023/05/12 08:07:50;;;;;;;1.77;0.90;;;10.00;99.90;;;;;;5053205;28;20480;-56
2023/05/12 08:10:18;;;;;;;1.67;1.37;;;10.10;99.90;;;;;;5053495;28;20463;-56
2023/05/12 08:12:45;;;;;;;1.87;0.67;;;10.20;99.90;;;;;;5053735;28;20453;-55
2023/05/12 08:15:12;;;;;;;2.13;1.60;;;10.10;99.90;;;;;;5050578;28;20452;-56
2023/05/12 08:17:39;;;;;;;1.33;0.97;;;10.20;99.90;;;;;;5052472;28;20542;-56
2023/05/12 08:20:09;;;;;;;1.50;0.70;;;10.40;99.90;;;;;;5050527;28;20522;-56
2023/05/12 08:22:35;;;;;;;1.10;0.70;;;10.40;99.90;;;;;;5051662;28;20958;-56
2023/05/12 08:25:03;;;;;;;1.10;0.60;;;10.50;99.90;;;;;;5073390;28;21010;-56
2023/05/12 08:27:30;;;;;;;1.23;0.73;;;10.60;99.90;;;;;;5073226;28;20453;-56
2023/05/12 08:29:57;;;;;;;1.70;0.90;;;10.60;99.90;;;;;;5071808;28;20493;-57
2023/05/12 08:32:25;;;;;;;1.30;0.80;;;10.60;99.90;;;;;;5052517;28;20543;-56
2023/05/12 08:34:52;;;;;;;1.10;0.83;;;10.70;99.90;;;;;;5052311;28;20463;-56
2023/05/12 08:37:20;;;;;;;1.80;0.60;;;10.80;99.90;;;;;;5063667;28;20511;-55
2023/05/12 08:39:47;;;;;;;1.67;1.10;;;10.80;99.90;;;;;;5063048;28;20500;-56
2023/05/12 08:42:26;;;;;;;1.43;0.70;;;10.90;99.90;;;;;;5060581;28;20543;-57
2023/05/12 08:44:54;;;;;;;1.37;0.73;;;11.00;99.90;;;;;;5043072;28;21038;-56
2023/05/12 08:47:23;;;;;;;1.88;0.90;;;11.00;99.90;;;;;;5066812;28;20808;-54
2023/05/12 08:49:59;;;;;;;1.20;0.80;;;11.10;99.90;;;;;;5066857;28;20310;-56
2023/05/12 08:52:28;;;;;;;1.20;0.80;;;11.10;99.90;;;;;;5051292;28;20449;-54
2023/05/12 08:54:55;;;;;;;1.47;1.00;;;11.20;99.90;;;;;;5053404;28;20532;-54
2023/05/12 08:57:23;;;;;;;2.33;1.30;;;11.20;99.90;;;;;;5051462;28;20452;-54
2023/05/12 08:59:53;;;;;;;2.43;1.47;;;11.20;99.90;;;;;;5050799;28;20987;-53
2023/05/12 09:02:22;;;;;;;1.40;0.70;;;11.20;99.90;;;;;;5052109;28;20440;-54
2023/05/12 09:04:49;;;;;;;1.20;0.60;;;11.30;99.90;;;;;;5034369;28;20470;-54
2023/05/12 09:07:18;;;;;;;2.73;1.10;;;11.30;99.90;;;;;;5049581;28;20817;-54
2023/05/12 09:09:51;;;;;;;2.80;1.20;;;11.40;99.90;;;;;;5051755;28;20499;-54
2023/05/12 09:12:20;;;;;;;1.10;0.90;;;11.30;99.90;;;;;;5052269;28;20493;-52
2023/05/12 09:14:50;;;;;;;1.40;1.13;;;11.40;99.90;;;;;;5050354;28;20456;-54
2023/05/12 09:17:17;;;;;;;1.40;0.73;;;11.40;99.90;;;;;;5051981;28;20535;-54
2023/05/12 09:19:44;;;;;;;1.80;1.10;;;11.20;99.90;;;;;;5063836;28;20552;-55
2023/05/12 09:22:13;;;;;;;3.43;0.97;;;11.20;99.90;;;;;;5047761;28;20480;-54
2023/05/12 09:24:41;;;;;;;1.77;1.30;;;11.30;99.90;;;;;;5038145;28;20454;-54
2023/05/12 09:27:09;;;;;;;2.30;1.03;;;11.30;99.90;;;;;;5061702;28;20992;-54
2023/05/12 09:29:36;;;;;;;1.23;0.73;;;11.40;99.90;;;;;;5071101;28;20546;-54
2023/05/12 09:32:03;;;;;;;1.40;1.10;;;11.40;99.90;;;;;;5062195;28;20532;-54
2023/05/12 09:34:34;;;;;;;1.13;0.80;;;11.40;99.90;;;;;;5051165;28;20535;-55
2023/05/12 09:37:03;;;;;;;1.43;0.87;;;11.40;99.90;;;;;;5052034;28;20683;-56
2023/05/12 09:39:31;;;;;;;1.13;0.73;;;11.40;99.90;;;;;;5051773;28;21095;-54
2023/05/12 09:41:58;;;;;;;3.60;2.20;;;11.20;99.90;;;;;;5051321;28;21076;-54
2023/05/12 09:44:27;;;;;;;3.73;2.80;;;11.30;99.90;;;;;;5051982;28;20858;-53
2023/05/12 09:46:54;;;;;;;1.10;0.80;;;11.40;99.90;;;;;;5051442;28;20540;-54
2023/05/12 09:49:23;;;;;;;2.40;0.87;;;11.40;99.90;;;;;;5051581;28;20492;-55
2023/05/12 09:51:52;;;;;;;1.60;1.10;;;11.50;99.90;;;;;;5050763;28;20437;-55
2023/05/12 09:54:25;;;;;;;1.57;1.20;;;11.60;99.90;;;;;;5048699;28;20444;-55
2023/05/12 09:56:57;;;;;;;1.40;0.93;;;11.60;99.90;;;;;;5051549;28;20582;-54
2023/05/12 09:59:31;;;;;;;1.30;1.00;;;11.70;99.90;;;;;;5051353;28;20488;-55
2023/05/12 10:02:00;;;;;;;1.97;0.93;;;11.60;99.90;;;;;;5041683;28;20474;-55
2023/05/12 10:04:28;;;;;;;1.60;1.00;;;11.70;99.90;;;;;;5032955;28;20450;-53
2023/05/12 10:06:57;;;;;;;1.57;0.60;;;11.70;99.90;;;;;;5050196;28;20445;-54
2023/05/12 10:09:28;;;;;;;1.40;0.80;;;11.70;99.90;;;;;;5042931;28;20565;-53
2023/05/12 10:11:55;;;;;;;1.00;0.70;;;11.50;99.90;;;;;;5039528;28;20526;-54
2023/05/12 10:14:23;;;;;;;1.10;0.80;;;11.50;99.90;;;;;;5050688;28;20467;-54
2023/05/12 10:16:52;;;;;;;1.50;1.00;;;11.40;99.90;;;;;;5051054;28;20452;-54
2023/05/12 10:19:20;;;;;;;1.30;0.70;;;11.60;99.90;;;;;;5050098;28;20495;-54
2023/05/12 10:21:47;;;;;;;2.27;0.90;;;11.70;99.90;;;;;;5050553;28;20564;-54
2023/05/12 10:24:15;;;;;;;1.10;0.80;;;11.70;99.90;;;;;;5051246;28;20481;-54
2023/05/12 10:26:43;;;;;;;1.43;0.87;;;11.70;99.90;;;;;;5050742;28;20459;-54
2023/05/12 10:29:11;;;;;;;1.83;1.03;;;11.70;99.90;;;;;;5051049;28;20466;-55
2023/05/12 10:31:38;;;;;;;1.50;0.77;;;11.70;99.90;;;;;;5049782;28;20460;-54
2023/05/12 10:34:07;;;;;;;1.60;0.80;;;11.80;99.90;;;;;;5051966;28;20544;-54
2023/05/12 10:36:46;;;;;;;1.90;1.20;;;11.90;99.90;;;;;;5060177;28;20450;-55
2023/05/12 10:39:14;;;;;;;5.07;3.67;;;11.90;99.90;;;;;;5061269;28;21031;-53
2023/05/12 10:41:42;;;;;;;2.70;2.00;;;12.00;99.90;;;;;;5060233;28;20494;-53
2023/05/12 10:44:09;;;;;;;1.50;1.07;;;12.10;99.90;;;;;;5059217;28;20435;-54
2023/05/12 10:46:37;;;;;;;4.33;1.70;;;12.10;99.90;;;;;;5061279;28;20441;-54
2023/05/12 10:49:08;;;;;;;1.57;1.20;;;12.20;99.90;;;;;;5060331;28;20466;-55
2023/05/12 10:51:47;;;;;;;1.60;1.10;;;12.10;99.90;;;;;;5049889;28;20441;-54
2023/05/12 10:54:20;;;;;;;4.27;2.57;;;12.20;99.90;;;;;;5055425;28;20436;-54
2023/05/12 10:56:47;;;;;;;2.03;1.10;;;12.20;99.90;;;;;;5033451;28;20473;-54
2023/05/12 10:59:16;;;;;;;1.60;1.10;;;12.20;99.90;;;;;;5053691;28;20555;-54
2023/05/12 11:01:57;;;;;;;1.50;1.17;;;12.30;99.90;;;;;;5053087;28;20511;-54
2023/05/12 11:04:39;;;;;;;1.80;1.20;;;12.20;99.90;;;;;;5053878;28;20444;-54
2023/05/12 11:07:08;;;;;;;1.50;1.03;;;12.20;99.90;;;;;;5057376;28;20468;-54
2023/05/12 11:09:36;;;;;;;4.03;3.07;;;12.30;99.90;;;;;;5053177;28;20473;-54
2023/05/12 11:12:03;;;;;;;3.73;2.63;;;12.40;99.90;;;;;;5054111;28;20446;-54
2023/05/12 11:14:30;;;;;;;2.03;1.37;;;12.40;99.90;;;;;;5053924;28;20843;-54
2023/05/12 11:16:57;;;;;;;1.67;1.10;;;12.40;99.90;;;;;;5063012;28;20476;-55
2023/05/12 11:19:26;;;;;;;1.83;1.27;;;12.50;99.90;;;;;;5054206;28;20493;-55
2023/05/12 11:21:54;;;;;;;1.77;1.30;;;12.40;99.90;;;;;;5053671;28;20925;-54
2023/05/12 11:24:22;;;;;;;1.40;1.00;;;12.40;99.90;;;;;;5053488;28;20449;-54
2023/05/12 11:26:50;;;;;;;1.73;1.07;;;12.50;99.90;;;;;;5053764;28;20960;-54
2023/05/12 11:29:18;;;;;;;1.80;1.30;;;12.50;99.90;;;;;;5071512;28;20467;-54
2023/05/12 11:31:48;;;;;;;1.20;0.70;;;12.40;99.90;;;;;;5069920;28;20535;-54
2023/05/12 11:34:15;;;;;;;1.20;0.70;;;12.50;99.90;;;;;;5054102;28;20441;-54
2023/05/12 11:36:45;;;;;;;2.13;0.80;;;12.60;99.90;;;;;;5054031;28;20449;-58
2023/05/12 11:39:16;;;;;;;1.10;0.77;;;12.70;99.90;;;;;;5054498;28;20469;-54
2023/05/12 11:41:44;;;;;;;1.10;0.70;;;12.70;99.90;;;;;;5053887;28;20513;-55
2023/05/12 11:44:15;;;;;;;1.10;0.67;;;12.80;99.90;;;;;;5059948;28;20527;-54
2023/05/12 11:46:53;;;;;;;1.60;1.10;;;12.90;99.90;;;;;;5060517;28;20453;-54
2023/05/12 11:49:20;;;;;;;2.23;0.70;;;12.80;99.90;;;;;;5053461;28;20492;-55
2023/05/12 11:51:48;;;;;;;1.00;0.70;;;12.90;99.90;;;;;;5054206;28;20495;-54
2023/05/12 11:54:15;;;;;;;1.10;0.70;;;12.90;99.90;;;;;;5053780;28;20576;-55
2023/05/12 11:56:48;;;;;;;1.00;0.70;;;13.00;99.90;;;;;;5053756;28;20970;-55
2023/05/12 11:59:26;;;;;;;2.13;0.93;;;13.00;99.90;;;;;;5053947;28;20469;-55
2023/05/12 12:01:53;;;;;;;1.13;0.87;;;13.10;99.90;;;;;;5053778;28;20469;-55
2023/05/12 12:04:31;;;;;;;1.93;0.80;;;13.20;99.90;;;;;;5050946;28;20477;-54
2023/05/12 12:07:00;;;;;;;1.20;0.53;;;13.30;99.90;;;;;;5054232;28;20537;-55
2023/05/12 12:09:34;;;;;;;1.10;0.77;;;13.40;99.90;;;;;;5053280;28;20866;-54
2023/05/12 12:12:02;;;;;;;3.33;0.70;;;13.40;99.90;;;;;;5053469;28;21018;-54
2023/05/12 12:14:30;;;;;;;1.40;0.70;;;13.30;99.90;;;;;;5053249;28;20500;-55
2023/05/12 12:16:57;;;;;;;1.20;0.60;;;13.40;99.90;;;;;;5053291;28;20485;-56
2023/05/12 12:19:24;;;;;;;4.03;0.70;;;13.40;99.90;;;;;;5053170;28;20557;-54
2023/05/12 12:21:51;;;;;;;2.87;2.10;;;13.50;99.90;;;;;;5053084;28;20505;-55
2023/05/12 12:24:20;;;;;;;4.37;0.90;;;13.60;99.90;;;;;;5052582;28;20499;-54
2023/05/12 12:26:47;;;;;;;1.40;0.80;;;13.60;99.90;;;;;;5053474;28;20473;-54
2023/05/12 12:29:13;;;;;;;1.33;0.70;;;13.60;99.90;;;;;;5053060;28;20548;-55
2023/05/12 12:31:40;;;;;;;1.63;0.90;;;13.70;99.90;;;;;;5053153;28;20492;-54
2023/05/12 12:34:07;;;;;;;1.50;0.70;;;13.70;99.90;;;;;;5053039;28;20478;-59
2023/05/12 12:36:34;;;;;;;1.20;0.60;;;13.70;99.90;;;;;;5053449;28;20473;-54
2023/05/12 12:39:02;;;;;;;1.20;0.70;;;13.80;99.90;;;;;;5052893;28;20548;-54
2023/05/12 12:41:30;;;;;;;1.00;0.50;;;13.80;99.90;;;;;;5053005;28;20522;-54
2023/05/12 12:43:57;;;;;;;1.10;0.50;;;13.80;99.90;;;;;;5053634;28;20567;-54
2023/05/12 12:46:24;;;;;;;1.20;0.70;;;13.80;99.90;;;;;;5052781;28;20521;-54
2023/05/12 12:48:51;;;;;;;1.67;1.03;;;13.80;99.90;;;;;;5052286;28;20489;-55
2023/05/12 12:51:17;;;;;;;1.47;0.67;;;13.80;99.90;;;;;;5052361;28;20529;-54
2023/05/12 12:53:45;;;;;;;2.80;0.80;;;13.80;99.90;;;;;;5052576;28;20536;-55
2023/05/12 12:56:12;;;;;;;1.10;0.60;;;13.80;99.90;;;;;;5052509;28;20992;-54